»·PEaware :: DCM205 KSFO-KSAN

DCM205 :: KSFO-KSAN

FLIGHT INFORMATION

Flight Status: Arrived
Operator:
DotCom
More flights by this operator :: More flights under this callsign
Pilot: Chris S. (2433)
Aircraft: AIRBUS A319
(A319)
More flights by this aircraft type
Origin: KSFO San Francisco Intl
United States
Destination: KSAN San Diego Intl-Lindbergh
United States
More flights between these airports :: More routes between these airports
Route: OFFSH2 MCKEY LAX COMIX2
File this flight plan on PilotEdge
Remarks:
Altitude:
(Current/Filed)
37,000ft
Speed:
(Current/Filed)
450kts
Departed: 18-Jan-21 08:41 AM
Arrived: 18-Jan-21 09:50 AM
Distance/Time
Traveled:
388nm/1:09
Distance/Time
To Go:
Arrived

Flight Plot

Page will automatically refresh every two minutes.

Flight plan parsing failed; only flown route is shown


Map Options




Map Legend


Flown Route
Filed Route
Departure Airport
Arrival Airport
Navaid (VOR, NDB)
Fix

Horizontal Profiles

Position Reports

Time Latitude Longitude Heading Altitude Ground
Speed
18-Jan-21 08:24 37.612439 -122.383240 337 27ft 0kts
18-Jan-21 08:25 37.612439 -122.383240 337 27ft 0kts
18-Jan-21 08:26 37.612439 -122.383240 337 27ft 0kts
18-Jan-21 08:27 37.612439 -122.383240 337 27ft 0kts
18-Jan-21 08:28 37.612439 -122.383240 337 27ft 0kts
18-Jan-21 08:29 37.612439 -122.383240 337 27ft 0kts
18-Jan-21 08:30 37.612439 -122.383240 337 27ft 0kts
18-Jan-21 08:31 37.612439 -122.383240 337 27ft 0kts
18-Jan-21 08:32 37.612439 -122.383240 337 27ft 0kts
18-Jan-21 08:33 37.612439 -122.383240 337 27ft 0kts
18-Jan-21 08:35 37.612327 -122.383179 326 27ft 2kts
18-Jan-21 08:36 37.612322 -122.382499 207 27ft 0kts
18-Jan-21 08:37 37.612322 -122.382499 207 27ft 0kts
18-Jan-21 08:38 37.611790 -122.382851 207 27ft 10kts
18-Jan-21 08:39 37.609519 -122.384065 132 27ft 5kts
18-Jan-21 08:40 37.609047 -122.383358 128 27ft 0kts
18-Jan-21 08:41 37.610650 -122.381132 28 27ft 51kts
18-Jan-21 08:42 37.648854 -122.361702 352 1221ft 181kts
18-Jan-21 08:43 37.704461 -122.365356 346 2954ft 237kts
18-Jan-21 08:44 37.716857 -122.445534 229 6349ft 295kts
18-Jan-21 08:45 37.642068 -122.496295 215 9483ft 314kts
18-Jan-21 08:46 37.569183 -122.566822 217 11921ft 353kts
18-Jan-21 08:47 37.483745 -122.645128 218 13663ft 402kts
18-Jan-21 08:48 37.381702 -122.707344 192 16004ft 421kts
18-Jan-21 08:48 37.285629 -122.686414 159 17745ft 431kts
18-Jan-21 08:50 37.148706 -122.637207 162 20059ft 447kts
18-Jan-21 08:51 37.026977 -122.594349 162 21782ft 459kts
18-Jan-21 08:52 36.901300 -122.555646 166 23363ft 471kts
18-Jan-21 08:52 36.793320 -122.528266 166 24585ft 479kts
18-Jan-21 08:53 36.661225 -122.493745 166 25913ft 489kts
18-Jan-21 08:54 36.526929 -122.459142 166 27215ft 496kts
18-Jan-21 08:55 36.399326 -122.399439 135 28481ft 490kts
18-Jan-21 08:56 36.312925 -122.271755 126 30134ft 482kts
18-Jan-21 08:57 36.224908 -122.145574 127 31726ft 483kts
18-Jan-21 08:58 36.138142 -122.018908 127 33218ft 483kts
18-Jan-21 08:59 36.050663 -121.892774 127 34622ft 484kts
18-Jan-21 09:00 35.962705 -121.766101 128 35901ft 485kts
18-Jan-21 09:01 35.874712 -121.639971 128 36997ft 486kts
18-Jan-21 09:02 35.786674 -121.514097 129 37023ft 485kts
18-Jan-21 09:03 35.698264 -121.388297 130 37020ft 484kts
18-Jan-21 09:04 35.610028 -121.263211 130 37022ft 484kts
18-Jan-21 09:05 35.521519 -121.138113 131 36992ft 483kts
18-Jan-21 09:06 35.439831 -121.008162 124 36936ft 483kts
18-Jan-21 09:07 35.363770 -120.872409 125 36909ft 484kts
18-Jan-21 09:08 35.286874 -120.737205 125 36973ft 483kts
18-Jan-21 09:09 35.210447 -120.603036 126 36970ft 483kts
18-Jan-21 09:10 35.133656 -120.468615 126 36915ft 482kts
18-Jan-21 09:11 35.056473 -120.334478 126 36894ft 482kts
18-Jan-21 09:12 34.979502 -120.200581 127 36951ft 482kts
18-Jan-21 09:13 34.902156 -120.067112 127 36987ft 483kts
18-Jan-21 09:14 34.824882 -119.933800 128 36982ft 481kts
18-Jan-21 09:15 34.747533 -119.801200 128 36938ft 481kts
18-Jan-21 09:16 34.670521 -119.669422 129 36895ft 478kts
18-Jan-21 09:17 34.593866 -119.538857 129 36898ft 472kts
18-Jan-21 09:18 34.517368 -119.409092 129 36949ft 481kts
18-Jan-21 09:19 34.439457 -119.277394 129 36954ft 480kts
18-Jan-21 09:20 34.361682 -119.146196 129 36958ft 480kts
18-Jan-21 09:21 34.283593 -119.015223 130 36947ft 480kts
18-Jan-21 09:22 34.205284 -118.884161 130 36909ft 479kts
18-Jan-21 09:23 34.128233 -118.755552 131 36898ft 477kts
18-Jan-21 09:24 34.050772 -118.627268 131 36895ft 471kts
18-Jan-21 09:25 33.974637 -118.501205 132 36525ft 474kts
18-Jan-21 09:26 33.893420 -118.380227 140 35557ft 468kts
18-Jan-21 09:27 33.804527 -118.266602 141 33663ft 464kts
18-Jan-21 09:28 33.717613 -118.153030 140 31016ft 463kts
18-Jan-21 09:29 33.630622 -118.038563 139 28105ft 462kts
18-Jan-21 09:30 33.542905 -117.925025 140 24864ft 463kts
18-Jan-21 09:31 33.451111 -117.818873 139 21880ft 455kts
18-Jan-21 09:32 33.358097 -117.718163 141 19093ft 446kts
18-Jan-21 09:33 33.266394 -117.620550 140 16477ft 437kts
18-Jan-21 09:34 33.175974 -117.525069 139 13877ft 428kts
18-Jan-21 09:35 33.088704 -117.443238 146 12250ft 361kts
18-Jan-21 09:36 33.015002 -117.382195 145 11434ft 301kts
18-Jan-21 09:37 32.950853 -117.327932 145 10092ft 276kts
18-Jan-21 09:38 32.889572 -117.276727 144 8581ft 251kts
18-Jan-21 09:39 32.834230 -117.230742 145 7018ft 237kts
18-Jan-21 09:40 32.801518 -117.167982 100 6422ft 233kts
18-Jan-21 09:41 32.785032 -117.093451 104 5994ft 233kts
18-Jan-21 09:42 32.767670 -117.019414 106 5725ft 232kts
18-Jan-21 09:43 32.738960 -116.955255 161 4635ft 222kts
18-Jan-21 09:44 32.689460 -116.982521 251 3598ft 201kts
18-Jan-21 09:45 32.696799 -117.037858 287 2763ft 154kts
18-Jan-21 09:46 32.709176 -117.085759 288 1798ft 147kts
18-Jan-21 09:47 32.719385 -117.128854 285 1120ft 132kts
18-Jan-21 09:48 32.728892 -117.170502 286 255ft 129kts
18-Jan-21 09:49 32.735367 -117.197181 280 29ft 19kts
18-Jan-21 09:50 32.734866 -117.198980 242 29ft 0kts
18-Jan-21 09:51 32.733929 -117.200458 256 29ft 0kts
18-Jan-21 09:52 32.733929 -117.200458 256 29ft 0kts
18-Jan-21 09:53 32.733929 -117.200458 256 29ft 0kts
18-Jan-21 09:54 32.733929 -117.200458 256 29ft 0kts
18-Jan-21 09:55 32.733929 -117.200458 256 29ft 0kts
18-Jan-21 09:56 32.733929 -117.200458 256 29ft 0kts
18-Jan-21 09:57 32.733929 -117.200458 256 29ft 0kts
18-Jan-21 09:58 32.733929 -117.200458 256 29ft 0kts
18-Jan-21 09:59 32.733929 -117.200458 256 29ft 0kts
18-Jan-21 10:00 32.733929 -117.200458 256 29ft 0kts
18-Jan-21 10:01 32.733929 -117.200458 256 29ft 0kts
18-Jan-21 10:02 32.733929 -117.200458 256 29ft 0kts
18-Jan-21 10:03 32.733929 -117.200458 256 29ft 0kts
18-Jan-21 10:04 32.733929 -117.200458 256 29ft 0kts

Navigation Log

Ident Type
Flight plan parsing failed, navigation log unavailable